Airfield :
LOGIN :

Register | Disclaimer

   EN    FR    IT 

 










Legend :    VFR   Marginal VFR   IFR   Intensive IFR   Very Intensive IFR
Visi :
Ceiling :
>= 8 km
>= 3000ft
5 to 8 km
1000 to 3000 ft
1500m to 5 km
500 to 1000 ft
800 to 1500m
200 to 500 ft
< 800m
< 200 ft
Symbols :   Thunderstorms  Fog  Heavy snow  Heavy precipitations  Wind > 20 kt
SIGMETs :     Misc.  Thunderstorms  Icing  Turbulence  Mountain Waves  Volcanic Ashes






- Airport Elevation : 10 ft
- IATA code : AAL


EKYT - Aalborg

CURRENT METAR :
  • 051250Z AUTO 19013KT 9999 -SHRA FEW011/// BKN015/// BKN019/// 17/16 Q1011

EXPIRED METARs :
  • 051234Z AUTO 20012KT 6000 -SHRA FEW011/// BKN014/// BKN020/// 17/16 Q1011
  • 051225Z AUTO 20013KT 7000 -SHRA FEW012/// BKN016/// BKN055/// 17/16 Q1011
  • 051150Z AUTO 19012KT 9999 -SHRA FEW012/// BKN015/// BKN020/// 17/16 Q1011
  • 051120Z AUTO 19013KT 9999 -SHRA FEW017/// BKN025/// BKN043/// 17/15 Q1011
  • 051050Z AUTO 18013KT 9999 OVC017/// 16/14 Q1011
  • 051020Z AUTO 18012KT 9999 BKN018/// BKN021/// 16/14 Q1011

TAF TAF EKYT
Valid from the 05 at 12:00 until the 06 at 12:00 UTC


051109Z 0512/0612 18012KT 9999 SCT020 BKN050
BECMG 0512/0514 21010KT
TEMPO 0512/0521 7000 -RA BKN012
BECMG 0522/0524 18006KT



MET'MAP, your aeronautical weather chart ! - Copyright ORBIFLY December 2007 - Disclaimer

ORBIFLY MET'MAP TEAM :

Programming & Development : Alexandra Zaïnal
Concept & original design : Baudouin d'Aumeries
Assistance for programming : Marc-Olivier Méhu
Technical & hardware support : Manuel Goepfert

Contact : metmap@orbifly.com




SOURCES & CREDITS :

   NOAA